Time;durP1;ratioP1;P1;durP2;ratioP2;P2;SDS_P1;SDS_P2;PMS_P1;PMS_P2;Temp;Humidity;BMP_temperature;BMP_pressure;BME280_temperature;BME280_humidity;BME280_pressure;Samples;Min_cycle;Max_cycle;Signal;HPM_P1;HPM_P2
2024/01/07 00:01:10;;;;;;;14.65;6.88;;;;;;;0.46;100.00;100849.72;5244102;28;20039;-75
2024/01/07 00:03:41;;;;;;;14.75;6.88;;;;;;;0.52;100.00;100854.06;5245684;28;20032;-75
2024/01/07 00:06:11;;;;;;;16.15;7.13;;;;;;;0.52;100.00;100857.50;5250091;28;20028;-75
2024/01/07 00:08:42;;;;;;;14.32;6.65;;;;;;;0.49;100.00;100867.75;5247825;28;20043;-75
2024/01/07 00:11:12;;;;;;;16.67;6.72;;;;;;;0.34;100.00;100862.47;5250095;28;20078;-75
2024/01/07 00:13:42;;;;;;;13.30;6.60;;;;;;;0.39;100.00;100870.22;5244415;28;20047;-74
2024/01/07 00:16:12;;;;;;;14.02;6.95;;;;;;;0.37;100.00;100869.34;5250915;28;20029;-75
2024/01/07 00:18:43;;;;;;;13.73;6.53;;;;;;;0.25;100.00;100870.06;5251466;28;20024;-75
2024/01/07 00:21:13;;;;;;;17.95;7.00;;;;;;;0.25;100.00;100877.78;5250664;28;20782;-75
2024/01/07 00:23:43;;;;;;;16.75;6.70;;;;;;;0.34;100.00;100875.31;5248680;28;20486;-74
2024/01/07 00:26:14;;;;;;;16.13;7.25;;;;;;;0.46;100.00;100874.56;5250814;28;20105;-74
2024/01/07 00:28:44;;;;;;;18.55;8.02;;;;;;;0.27;100.00;100881.25;5251720;28;20038;-75
2024/01/07 00:31:14;;;;;;;12.88;6.70;;;;;;;0.28;100.00;100879.53;5251341;28;20508;-75
2024/01/07 00:33:45;;;;;;;14.60;6.70;;;;;;;0.37;100.00;100889.91;5246795;28;20099;-75
2024/01/07 00:36:15;;;;;;;12.80;6.28;;;;;;;0.27;100.00;100888.97;5249161;28;20033;-75
2024/01/07 00:38:45;;;;;;;12.20;6.38;;;;;;;0.27;100.00;100888.06;5250315;28;20123;-75
2024/01/07 00:41:16;;;;;;;16.63;6.63;;;;;;;0.20;100.00;100889.72;5231300;28;20036;-75
2024/01/07 00:43:46;;;;;;;12.27;5.85;;;;;;;0.27;100.00;100891.53;5243296;28;20028;-75
2024/01/07 00:46:16;;;;;;;18.55;6.90;;;;;;;0.32;100.00;100896.69;5243638;28;20056;-75
2024/01/07 00:48:47;;;;;;;14.80;7.13;;;;;;;0.36;100.00;100896.75;5244364;28;20185;-75
2024/01/07 00:51:17;;;;;;;16.30;6.57;;;;;;;0.31;100.00;100893.28;5247356;28;20107;-75
2024/01/07 00:53:47;;;;;;;13.73;6.18;;;;;;;0.25;100.00;100903.47;5242324;28;20499;-75
2024/01/07 00:56:17;;;;;;;12.18;6.00;;;;;;;0.49;100.00;100913.13;5238487;28;20025;-75
2024/01/07 00:58:48;;;;;;;11.40;5.55;;;;;;;0.38;100.00;100915.59;5240509;28;20488;-75
2024/01/07 01:01:18;;;;;;;13.88;5.95;;;;;;;0.27;100.00;100914.66;5244177;28;20115;-75
2024/01/07 01:03:48;;;;;;;11.05;5.10;;;;;;;0.17;100.00;100912.81;5243420;28;20032;-75
2024/01/07 01:06:18;;;;;;;12.60;5.07;;;;;;;0.25;100.00;100929.16;5244446;28;20437;-75
2024/01/07 01:08:49;;;;;;;14.48;5.07;;;;;;;0.35;100.00;100922.44;5244894;28;20160;-74
2024/01/07 01:11:19;;;;;;;11.07;4.68;;;;;;;0.14;100.00;100920.50;5245466;28;20382;-75
2024/01/07 01:13:49;;;;;;;11.18;5.13;;;;;;;0.14;100.00;100928.19;5243088;28;20020;-75
2024/01/07 01:16:20;;;;;;;11.23;5.65;;;;;;;0.09;100.00;100935.00;5244436;28;20120;-75
2024/01/07 01:18:50;;;;;;;11.38;4.70;;;;;;;0.11;100.00;100937.56;5244297;28;20027;-75
2024/01/07 01:21:21;;;;;;;11.07;4.88;;;;;;;0.19;100.00;100936.81;5247192;28;20029;-75
2024/01/07 01:23:51;;;;;;;13.23;4.07;;;;;;;0.00;100.00;100940.00;5242917;28;20031;-75
2024/01/07 01:26:21;;;;;;;9.90;4.50;;;;;;;-0.09;100.00;100940.72;5242340;28;20028;-74
2024/01/07 01:28:51;;;;;;;9.20;4.40;;;;;;;0.07;100.00;100941.78;5242837;28;20024;-75
2024/01/07 01:31:22;;;;;;;12.60;4.72;;;;;;;0.05;100.00;100938.34;5232441;28;20478;-74
2024/01/07 01:33:52;;;;;;;10.05;4.45;;;;;;;0.03;100.00;100940.03;5233539;28;20017;-75
2024/01/07 01:36:22;;;;;;;9.55;4.00;;;;;;;-0.02;100.00;100958.81;5244400;28;20084;-75
2024/01/07 01:38:53;;;;;;;11.93;4.50;;;;;;;0.10;100.00;100946.13;5245714;28;20779;-75
2024/01/07 01:41:23;;;;;;;7.55;4.38;;;;;;;0.17;100.00;100951.34;5242280;28;20181;-75
2024/01/07 01:43:58;;;;;;;10.68;4.25;;;;;;;0.01;100.00;100957.16;5240589;28;20028;-75
2024/01/07 01:46:29;;;;;;;7.85;3.40;;;;;;;0.04;100.00;100970.03;5246428;28;20288;-75
2024/01/07 01:49:00;;;;;;;8.82;4.20;;;;;;;-0.15;100.00;100964.66;5246478;28;20028;-74
2024/01/07 01:51:31;;;;;;;9.18;4.30;;;;;;;-0.25;100.00;100969.63;5247726;28;20051;-75
2024/01/07 01:54:02;;;;;;;10.38;3.92;;;;;;;-0.31;100.00;100984.94;5244918;28;20370;-75
2024/01/07 01:56:33;;;;;;;10.15;4.05;;;;;;;-0.24;100.00;100979.06;5245956;28;20024;-75
2024/01/07 01:59:03;;;;;;;11.35;4.38;;;;;;;-0.22;100.00;100975.66;5248206;28;20028;-75
2024/01/07 02:01:34;;;;;;;8.18;3.72;;;;;;;-0.17;100.00;100988.56;5250808;28;20035;-75
2024/01/07 02:04:04;;;;;;;7.82;4.07;;;;;;;-0.25;100.00;100985.03;5250954;28;20484;-75
2024/01/07 02:06:34;;;;;;;9.93;3.75;;;;;;;-0.19;100.00;100992.81;5249467;28;20039;-75
2024/01/07 02:09:05;;;;;;;10.77;4.20;;;;;;;-0.21;100.00;100999.66;5255882;28;20028;-75
2024/01/07 02:11:35;;;;;;;9.65;4.22;;;;;;;-0.10;100.00;100998.94;5255893;28;20048;-75
2024/01/07 02:14:05;;;;;;;8.82;4.13;;;;;;;-0.14;100.00;100996.31;5246993;28;20115;-75
2024/01/07 02:16:35;;;;;;;9.73;4.45;;;;;;;-0.05;100.00;101005.00;5248793;28;20024;-75
2024/01/07 02:19:06;;;;;;;12.82;4.28;;;;;;;0.01;100.00;101000.81;5252764;28;20221;-75
2024/01/07 02:21:36;;;;;;;10.05;4.78;;;;;;;-0.13;100.00;101009.19;5245150;28;20051;-75
2024/01/07 02:24:15;;;;;;;9.30;4.10;;;;;;;-0.30;100.00;101009.75;5249494;28;20032;-75
2024/01/07 02:26:45;;;;;;;9.52;4.57;;;;;;;-0.32;100.00;101014.03;5253765;28;20051;-75
2024/01/07 02:29:16;;;;;;;9.75;4.05;;;;;;;-0.26;100.00;101007.28;5249122;28;20036;-74
2024/01/07 02:31:46;;;;;;;10.35;4.25;;;;;;;-0.40;100.00;101007.94;5246233;28;20449;-75
2024/01/07 02:34:16;;;;;;;10.20;3.88;;;;;;;-0.40;100.00;101008.78;5253617;28;20028;-75
2024/01/07 02:36:46;;;;;;;11.15;4.13;;;;;;;-0.36;100.00;101004.56;5245982;28;20032;-75
2024/01/07 02:39:17;;;;;;;8.50;3.58;;;;;;;-0.44;100.00;101012.13;5246301;28;20495;-75
2024/01/07 02:41:49;;;;;;;8.35;3.90;;;;;;;-0.41;100.00;101017.31;5251986;28;20024;-75
2024/01/07 02:44:19;;;;;;;8.88;3.55;;;;;;;-0.43;100.00;101013.88;5245765;28;21821;-75
2024/01/07 02:46:50;;;;;;;8.13;3.03;;;;;;;-0.33;100.00;101025.13;5247163;28;20032;-75
2024/01/07 02:49:20;;;;;;;8.63;3.40;;;;;;;-0.29;100.00;101024.31;5245085;28;20022;-74
2024/01/07 02:51:50;;;;;;;8.63;3.20;;;;;;;-0.31;99.67;101026.00;5245517;28;20488;-75
2024/01/07 02:54:20;;;;;;;8.63;3.47;;;;;;;-0.45;99.34;101042.91;5245325;28;20031;-74
2024/01/07 02:56:51;;;;;;;7.88;3.20;;;;;;;-0.47;99.07;101045.47;5249709;28;20476;-75
2024/01/07 02:59:21;;;;;;;8.93;3.47;;;;;;;-0.50;99.28;101053.13;5252631;28;20015;-74
2024/01/07 03:01:51;;;;;;;6.03;3.10;;;;;;;-0.43;99.36;101041.22;5250040;28;20416;-75
2024/01/07 03:04:22;;;;;;;8.52;3.42;;;;;;;-0.33;99.67;101043.97;5246875;28;20039;-75
2024/01/07 03:06:52;;;;;;;8.50;3.25;;;;;;;-0.24;100.00;101046.66;5250595;28;20108;-74
2024/01/07 03:09:22;;;;;;;7.65;3.38;;;;;;;-0.18;100.00;101057.03;5252489;28;20046;-74
2024/01/07 03:11:54;;;;;;;10.65;3.88;;;;;;;-0.28;100.00;101055.19;5253247;28;20046;-75
2024/01/07 03:14:24;;;;;;;6.40;3.10;;;;;;;-0.15;100.00;101062.22;5245077;28;20172;-74
2024/01/07 03:16:54;;;;;;;13.88;4.35;;;;;;;-0.31;100.00;101065.41;5251502;28;20127;-75
2024/01/07 03:19:25;;;;;;;10.63;3.20;;;;;;;-0.25;100.00;101074.91;5246403;28;20214;-75
2024/01/07 03:21:55;;;;;;;7.70;2.78;;;;;;;-0.49;100.00;101066.81;5251770;28;20111;-75
2024/01/07 03:24:25;;;;;;;6.43;3.05;;;;;;;-0.27;100.00;101068.84;5255696;28;20028;-75
2024/01/07 03:26:55;;;;;;;6.57;2.92;;;;;;;-0.49;100.00;101070.25;5255480;28;20508;-75
2024/01/07 03:29:26;;;;;;;6.30;3.03;;;;;;;-0.32;100.00;101067.94;5255838;28;20031;-74
2024/01/07 03:31:56;;;;;;;8.48;3.10;;;;;;;-0.40;99.58;101074.66;5248362;28;20134;-75
2024/01/07 03:34:26;;;;;;;8.32;3.03;;;;;;;-0.56;99.58;101072.69;5244766;28;20277;-75
2024/01/07 03:36:57;;;;;;;7.40;2.88;;;;;;;-0.46;99.06;101074.53;5251041;28;20119;-74
2024/01/07 03:39:27;;;;;;;6.55;2.75;;;;;;;-0.43;98.99;101070.34;5242325;28;20032;-74
2024/01/07 03:41:57;;;;;;;7.85;2.30;;;;;;;-0.43;97.68;101072.03;5244796;28;20028;-74
2024/01/07 03:44:28;;;;;;;6.85;2.22;;;;;;;-0.41;96.22;101078.91;5245278;28;20481;-74
2024/01/07 03:46:58;;;;;;;4.97;2.20;;;;;;;-0.44;95.54;101078.00;5248412;28;20040;-73
2024/01/07 03:49:28;;;;;;;4.78;2.10;;;;;;;-0.36;94.89;101079.84;5248993;28;20032;-74
2024/01/07 03:51:59;;;;;;;4.00;2.05;;;;;;;-0.38;94.29;101083.25;5248782;28;20107;-74
2024/01/07 03:54:29;;;;;;;7.35;2.70;;;;;;;-0.30;94.70;101094.50;5245343;28;20028;-75
2024/01/07 03:56:59;;;;;;;3.42;1.88;;;;;;;-0.36;92.86;101091.84;5245086;28;20115;-75
2024/01/07 03:59:30;;;;;;;6.57;2.00;;;;;;;-0.42;92.51;101084.88;5246516;28;20028;-75
2024/01/07 04:02:00;;;;;;;4.53;1.83;;;;;;;-0.42;92.27;101091.75;5246655;28;20051;-75
2024/01/07 04:04:30;;;;;;;4.32;1.63;;;;;;;-0.34;92.44;101085.00;5245263;28;20063;-75
2024/01/07 04:07:01;;;;;;;4.88;1.90;;;;;;;-0.35;91.78;101098.69;5246377;28;20039;-74
2024/01/07 04:09:31;;;;;;;7.55;2.20;;;;;;;-0.29;92.58;101107.38;5244827;28;20047;-74
2024/01/07 04:12:01;;;;;;;4.35;1.70;;;;;;;-0.34;91.64;101111.56;5248104;28;20024;-74
2024/01/07 04:14:33;;;;;;;4.43;1.75;;;;;;;-0.43;91.85;101115.66;5245806;28;20135;-74
2024/01/07 04:17:03;;;;;;;3.78;1.60;;;;;;;-0.36;91.00;101125.22;5244662;28;20525;-74
2024/01/07 04:19:37;;;;;;;4.60;1.60;;;;;;;-0.38;90.22;101129.47;5245457;28;20115;-74
2024/01/07 04:22:07;;;;;;;7.25;1.70;;;;;;;-0.32;90.57;101134.69;5243022;28;20393;-74
2024/01/07 04:24:41;;;;;;;3.50;1.15;;;;;;;-0.31;89.39;101131.28;5244992;28;20028;-74
2024/01/07 04:27:11;;;;;;;3.38;1.42;;;;;;;-0.44;90.64;101142.16;5244601;28;20543;-74
2024/01/07 04:29:42;;;;;;;2.50;1.27;;;;;;;-0.40;91.35;101147.38;5248357;28;20031;-73
2024/01/07 04:32:12;;;;;;;2.65;1.33;;;;;;;-0.34;90.14;101151.75;5247744;28;20025;-74
2024/01/07 04:34:42;;;;;;;3.00;1.15;;;;;;;-0.57;89.22;101137.69;5250550;28;20020;-73
2024/01/07 04:37:13;;;;;;;5.78;1.65;;;;;;;-0.58;88.08;101141.94;5244533;28;20066;-74
2024/01/07 04:39:43;;;;;;;3.42;1.50;;;;;;;-0.54;88.36;101148.00;5247007;28;20032;-73
2024/01/07 04:42:13;;;;;;;2.63;1.55;;;;;;;-0.59;87.86;101160.72;5247465;28;20024;-75
2024/01/07 04:44:44;;;;;;;3.42;1.30;;;;;;;-0.60;88.05;101158.13;5245092;28;20028;-73
2024/01/07 04:47:43;;;;;;;3.22;1.27;;;;;;;-0.53;88.54;101159.97;5244958;28;20024;-74
2024/01/07 04:50:15;;;;;;;3.50;1.50;;;;;;;-0.54;87.55;101168.53;5235523;28;20051;-74
2024/01/07 04:52:46;;;;;;;2.00;1.10;;;;;;;-0.47;88.00;101176.38;5245881;28;20030;-74
2024/01/07 04:55:16;;;;;;;4.03;1.10;;;;;;;-0.50;87.99;101171.19;5245928;28;20020;-74
2024/01/07 04:57:46;;;;;;;3.38;1.75;;;;;;;-0.47;88.13;101165.22;5247668;28;20031;-74
2024/01/07 05:00:17;;;;;;;3.88;1.55;;;;;;;-0.53;86.98;101183.09;5245610;28;20036;-74
2024/01/07 05:02:47;;;;;;;5.00;1.60;;;;;;;-0.58;86.71;101177.00;5244322;28;20122;-74
2024/01/07 05:05:17;;;;;;;4.45;1.45;;;;;;;-0.45;86.52;101184.94;5248656;28;20302;-74
2024/01/07 05:07:48;;;;;;;6.15;1.90;;;;;;;-0.74;86.76;101191.22;5247002;28;20020;-74
2024/01/07 05:10:18;;;;;;;8.60;1.65;;;;;;;-0.71;86.98;101195.56;5247810;28;20020;-74
2024/01/07 05:12:48;;;;;;;4.32;1.77;;;;;;;-0.68;87.62;101187.94;5244177;28;20168;-74
2024/01/07 05:15:18;;;;;;;3.72;1.30;;;;;;;-0.60;87.07;101189.81;5246669;28;20217;-74
2024/01/07 05:17:49;;;;;;;3.92;1.63;;;;;;;-0.67;86.47;101207.63;5247743;28;20385;-74
2024/01/07 05:20:19;;;;;;;3.17;1.60;;;;;;;-0.73;86.88;101199.81;5247424;28;20108;-74
2024/01/07 05:22:49;;;;;;;3.80;1.60;;;;;;;-0.63;87.02;101204.25;5247247;28;20193;-74
2024/01/07 05:25:20;;;;;;;4.18;1.65;;;;;;;-0.74;86.44;101214.31;5243559;28;20024;-73
2024/01/07 05:27:50;;;;;;;4.53;1.83;;;;;;;-0.79;86.52;101212.50;5242630;28;20259;-73
2024/01/07 05:30:22;;;;;;;5.43;1.60;;;;;;;-0.68;85.97;101226.41;5246844;28;20498;-74
2024/01/07 05:32:52;;;;;;;2.95;1.48;;;;;;;-0.76;86.63;101225.41;5245636;28;20130;-74
2024/01/07 05:35:22;;;;;;;3.80;1.95;;;;;;;-0.88;86.46;101232.84;5245369;28;20428;-74
2024/01/07 05:37:53;;;;;;;3.83;1.80;;;;;;;-0.82;86.13;101227.84;5243647;28;20170;-73
2024/01/07 05:40:23;;;;;;;5.93;1.90;;;;;;;-0.86;86.47;101226.03;5244572;28;20028;-74
2024/01/07 05:42:53;;;;;;;3.92;1.80;;;;;;;-0.81;86.00;101229.56;5243508;28;20037;-74
2024/01/07 05:45:24;;;;;;;7.25;2.75;;;;;;;-0.90;85.46;101230.25;5243278;28;20035;-74
2024/01/07 05:47:54;;;;;;;4.50;1.92;;;;;;;-0.93;85.77;101235.31;5246093;28;20064;-72
2024/01/07 05:50:24;;;;;;;4.80;1.70;;;;;;;-1.00;86.25;101222.31;5243333;28;20055;-74
2024/01/07 05:52:54;;;;;;;4.47;1.90;;;;;;;-0.98;86.06;101236.94;5245168;28;20417;-74
2024/01/07 05:55:25;;;;;;;5.28;2.22;;;;;;;-1.00;85.35;101222.31;5244026;28;20032;-74
2024/01/07 05:57:55;;;;;;;6.13;2.20;;;;;;;-1.01;85.78;101235.97;5245014;28;20419;-73
2024/01/07 06:00:25;;;;;;;6.15;1.98;;;;;;;-1.00;86.26;101232.59;5244820;28;20028;-74
2024/01/07 06:02:56;;;;;;;6.95;1.80;;;;;;;-1.14;86.75;101255.38;5244784;28;20461;-73
2024/01/07 06:05:26;;;;;;;6.93;2.30;;;;;;;-1.10;85.97;101252.03;5246280;28;20027;-74
2024/01/07 06:07:56;;;;;;;6.05;1.88;;;;;;;-1.25;86.16;101256.81;5246150;28;20040;-72
2024/01/07 06:10:27;;;;;;;4.28;2.05;;;;;;;-1.22;86.30;101266.28;5246134;28;20021;-73
2024/01/07 06:12:57;;;;;;;4.70;1.90;;;;;;;-1.19;87.25;101267.25;5245827;28;20029;-73
2024/01/07 06:15:27;;;;;;;5.60;2.05;;;;;;;-1.23;86.62;101267.13;5242695;28;20052;-73
2024/01/07 06:17:57;;;;;;;5.78;2.30;;;;;;;-1.24;85.99;101273.09;5244439;28;20036;-73
2024/01/07 06:20:28;;;;;;;5.40;2.25;;;;;;;-1.29;86.69;101280.66;5244269;28;20025;-73
2024/01/07 06:22:58;;;;;;;4.28;1.90;;;;;;;-1.24;87.20;101273.94;5243655;28;20032;-74
2024/01/07 06:25:28;;;;;;;4.57;2.00;;;;;;;-1.23;86.47;101290.19;5247069;28;20020;-73
2024/01/07 06:27:59;;;;;;;5.78;2.03;;;;;;;-1.29;87.12;101284.91;5243696;28;20476;-73
2024/01/07 06:30:29;;;;;;;4.68;2.00;;;;;;;-1.33;87.12;101291.69;5243899;28;20111;-73
2024/01/07 06:32:59;;;;;;;3.95;1.80;;;;;;;-1.22;87.92;101291.94;5241793;28;20056;-74
2024/01/07 06:35:30;;;;;;;6.10;2.10;;;;;;;-1.33;87.89;101304.50;5243819;28;20074;-73
2024/01/07 06:38:00;;;;;;;4.30;1.90;;;;;;;-1.31;87.86;101314.78;5244895;28;20025;-74
2024/01/07 06:40:31;;;;;;;4.47;2.10;;;;;;;-1.33;87.49;101324.13;5245097;28;20565;-74
2024/01/07 06:43:01;;;;;;;5.45;2.17;;;;;;;-1.33;86.22;101324.13;5243622;28;20035;-74
2024/01/07 06:45:32;;;;;;;7.60;2.72;;;;;;;-1.36;85.67;101329.19;5244175;28;20460;-73
2024/01/07 06:48:02;;;;;;;4.68;2.28;;;;;;;-1.23;85.76;101332.06;5247688;28;20032;-73
2024/01/07 06:50:33;;;;;;;6.15;2.20;;;;;;;-1.28;86.17;101337.91;5246854;28;20127;-73
2024/01/07 06:53:03;;;;;;;5.35;2.03;;;;;;;-1.21;87.14;101338.09;5247076;28;20033;-73
2024/01/07 06:55:33;;;;;;;5.30;2.30;;;;;;;-1.28;86.02;101350.72;5245760;28;20042;-73
2024/01/07 06:58:04;;;;;;;5.15;2.20;;;;;;;-1.30;86.01;101360.97;5248503;28;20079;-73
2024/01/07 07:00:34;;;;;;;4.97;2.25;;;;;;;-1.25;85.32;101355.97;5247159;28;20402;-73
2024/01/07 07:03:05;;;;;;;7.45;2.50;;;;;;;-1.29;86.41;101359.25;5248712;28;20107;-73
2024/01/07 07:05:35;;;;;;;7.68;2.20;;;;;;;-1.33;85.71;101370.25;5248015;28;20031;-73
2024/01/07 07:08:06;;;;;;;6.68;2.25;;;;;;;-1.34;86.66;101378.78;5251566;28;20293;-74
2024/01/07 07:10:36;;;;;;;6.97;2.20;;;;;;;-1.28;86.17;101387.50;5247323;28;20051;-73
2024/01/07 07:13:07;;;;;;;6.25;2.55;;;;;;;-1.22;86.16;101379.94;5246525;28;20028;-74
2024/01/07 07:15:37;;;;;;;5.55;2.05;;;;;;;-1.14;85.80;101390.38;5245215;28;20070;-73
2024/01/07 07:18:08;;;;;;;6.70;2.10;;;;;;;-1.19;85.96;101399.69;5245530;28;20374;-73
2024/01/07 07:20:38;;;;;;;3.92;1.90;;;;;;;-0.93;85.55;101398.63;5249915;28;20039;-73
2024/01/07 07:23:08;;;;;;;6.72;2.42;;;;;;;-0.96;86.04;101398.50;5249315;28;20111;-73
2024/01/07 07:25:39;;;;;;;4.65;2.15;;;;;;;-0.99;85.56;101403.56;5246520;28;20036;-74
2024/01/07 07:28:09;;;;;;;5.10;2.22;;;;;;;-0.86;85.57;101400.47;5244810;28;20104;-74
2024/01/07 07:30:39;;;;;;;7.03;2.10;;;;;;;-0.86;85.75;101406.47;5242843;28;20120;-73
2024/01/07 07:33:10;;;;;;;5.43;2.10;;;;;;;-0.86;84.81;101409.03;5242126;28;20452;-73
2024/01/07 07:35:41;;;;;;;5.57;2.35;;;;;;;-0.87;85.39;101411.56;5243917;28;20082;-74
2024/01/07 07:38:12;;;;;;;4.53;2.28;;;;;;;-0.75;84.94;101415.28;5244607;28;20550;-74
2024/01/07 07:40:42;;;;;;;14.27;5.90;;;;;;;-0.62;84.94;101416.41;5244310;28;20028;-73
2024/01/07 07:43:12;;;;;;;10.73;3.88;;;;;;;-0.53;84.33;101414.06;5243780;28;20033;-73
2024/01/07 07:45:43;;;;;;;4.35;2.17;;;;;;;-0.72;83.40;101419.63;5244893;28;20060;-74
2024/01/07 07:48:13;;;;;;;9.63;2.45;;;;;;;-0.77;84.41;101431.47;5245331;28;20028;-74
2024/01/07 07:50:43;;;;;;;5.57;2.47;;;;;;;-0.72;84.40;101435.03;5247934;28;20042;-74
2024/01/07 07:53:14;;;;;;;5.43;2.35;;;;;;;-0.76;85.24;101430.66;5247351;28;20046;-73
2024/01/07 07:55:44;;;;;;;6.72;2.60;;;;;;;-0.73;84.33;101439.28;5244035;28;20070;-73
2024/01/07 07:58:14;;;;;;;5.78;2.20;;;;;;;-0.85;84.54;101440.69;5242947;28;20113;-74
2024/01/07 08:00:45;;;;;;;4.47;2.10;;;;;;;-0.66;84.86;101453.13;5247569;28;20035;-74
2024/01/07 08:03:15;;;;;;;6.03;2.40;;;;;;;-0.74;86.12;101450.38;5247861;28;20027;-74
2024/01/07 08:05:45;;;;;;;7.15;2.38;;;;;;;-0.91;85.25;101459.34;5246549;28;20027;-74
2024/01/07 08:08:19;;;;;;;4.18;2.13;;;;;;;-0.81;85.38;101456.19;5248185;28;20032;-73
2024/01/07 08:10:49;;;;;;;5.35;2.00;;;;;;;-0.73;85.29;101464.94;5248054;28;20020;-73
2024/01/07 08:13:19;;;;;;;4.55;2.08;;;;;;;-0.73;85.06;101458.94;5249936;28;20530;-73
2024/01/07 08:15:50;;;;;;;5.35;2.08;;;;;;;-0.72;84.72;101470.94;5247389;28;20028;-73
2024/01/07 08:18:20;;;;;;;5.45;2.08;;;;;;;-0.72;86.29;101465.81;5249694;28;20399;-74
2024/01/07 08:20:50;;;;;;;6.75;3.13;;;;;;;-0.75;86.98;101465.75;5248481;28;20032;-73
2024/01/07 08:23:21;;;;;;;4.82;2.33;;;;;;;-0.77;86.66;101472.50;5243524;28;20027;-73
2024/01/07 08:25:51;;;;;;;4.82;2.35;;;;;;;-0.71;86.00;101467.53;5245045;28;20024;-73
2024/01/07 08:28:21;;;;;;;6.50;2.47;;;;;;;-0.86;86.23;101472.31;5245926;28;20563;-73
2024/01/07 08:30:53;;;;;;;4.28;2.25;;;;;;;-0.89;87.11;101478.22;5244557;28;20024;-73
2024/01/07 08:33:23;;;;;;;7.18;2.22;;;;;;;-0.88;85.96;101484.22;5245379;28;20085;-73
2024/01/07 08:35:53;;;;;;;9.20;2.75;;;;;;;-0.70;86.11;101484.66;5248261;28;20044;-73
2024/01/07 08:38:25;;;;;;;6.53;2.47;;;;;;;-0.80;86.44;101480.13;5244849;28;20435;-73
2024/01/07 08:40:55;;;;;;;6.15;2.80;;;;;;;-0.79;86.90;101489.56;5245626;28;20119;-73
2024/01/07 08:43:25;;;;;;;6.45;2.63;;;;;;;-0.64;87.31;101493.38;5246146;28;20118;-73
2024/01/07 08:45:56;;;;;;;5.88;2.50;;;;;;;-0.72;87.63;101491.47;5247861;28;20040;-73
2024/01/07 08:48:26;;;;;;;8.15;2.40;;;;;;;-0.52;88.11;101491.09;5250147;28;20016;-74
2024/01/07 08:50:57;;;;;;;5.28;2.08;;;;;;;-0.35;86.91;101489.78;5247464;28;20089;-74
2024/01/07 08:53:27;;;;;;;4.35;2.17;;;;;;;-0.41;85.77;101499.91;5251820;28;20050;-73
2024/01/07 08:55:57;;;;;;;7.05;2.40;;;;;;;-0.40;86.26;101508.50;5247192;28;20031;-73
2024/01/07 08:58:28;;;;;;;7.70;2.60;;;;;;;-0.46;87.68;101508.34;5252198;28;20016;-74
2024/01/07 09:00:58;;;;;;;5.05;2.50;;;;;;;-0.46;87.16;101509.22;5248891;28;20072;-74
2024/01/07 09:03:28;;;;;;;5.70;2.22;;;;;;;-0.41;86.63;101515.31;5249542;28;20024;-74
2024/01/07 09:05:59;;;;;;;4.55;2.20;;;;;;;-0.19;86.82;101512.41;5249810;28;20081;-73
2024/01/07 09:08:29;;;;;;;6.97;2.75;;;;;;;-0.29;86.32;101517.28;5243770;28;20028;-74
2024/01/07 09:11:01;;;;;;;5.60;2.38;;;;;;;-0.37;86.90;101516.25;5243223;28;20095;-73
2024/01/07 09:13:32;;;;;;;6.85;2.15;;;;;;;-0.37;86.31;101516.25;5238675;28;20032;-73
2024/01/07 09:16:02;;;;;;;5.10;2.38;;;;;;;-0.46;86.60;101514.34;5247937;28;20047;-73
2024/01/07 09:18:32;;;;;;;6.88;2.28;;;;;;;-0.48;87.13;101522.84;5242623;28;20028;-74
2024/01/07 09:21:03;;;;;;;5.63;2.30;;;;;;;-0.29;88.31;101518.19;5247783;28;20028;-74
2024/01/07 09:23:35;;;;;;;6.82;2.90;;;;;;;-0.20;88.11;101526.06;5246536;28;20033;-74
2024/01/07 09:26:06;;;;;;;4.63;2.25;;;;;;;0.07;87.37;101518.97;5245228;28;20033;-73
2024/01/07 09:28:37;;;;;;;6.72;2.60;;;;;;;-0.03;86.13;101523.88;5249434;28;20549;-73
2024/01/07 09:31:08;;;;;;;5.28;2.25;;;;;;;0.06;86.60;101528.38;5238455;28;20028;-73
2024/01/07 09:33:38;;;;;;;4.57;2.30;;;;;;;-0.10;86.60;101534.84;5244537;28;20039;-74
2024/01/07 09:36:08;;;;;;;5.07;2.60;;;;;;;0.03;87.31;101540.31;5244276;28;20131;-74
2024/01/07 09:38:40;;;;;;;5.90;2.30;;;;;;;0.19;86.09;101526.97;5240822;22;20046;-76
2024/01/07 09:41:10;;;;;;;4.50;2.13;;;;;;;0.28;86.35;101543.44;5175762;28;20034;-76
2024/01/07 09:43:40;;;;;;;7.93;2.83;;;;;;;0.22;86.37;101538.16;5175847;28;20022;-76
2024/01/07 09:46:13;;;;;;;6.22;2.80;;;;;;;0.40;86.46;101535.09;5178842;28;20117;-77
2024/01/07 09:48:43;;;;;;;5.55;2.55;;;;;;;0.27;86.99;101539.13;5182963;28;20033;-76
2024/01/07 09:51:15;;;;;;;9.88;3.28;;;;;;;0.12;86.43;101545.63;5190853;28;20043;-75
2024/01/07 09:53:48;;;;;;;6.40;2.22;;;;;;;0.47;86.77;101539.53;5191582;28;20460;-76
2024/01/07 09:56:22;;;;;;;5.60;2.15;;;;;;;0.40;86.26;101543.66;5193766;28;20098;-75
2024/01/07 09:58:53;;;;;;;5.25;2.30;;;;;;;0.40;85.61;101541.09;5191627;28;20174;-76
2024/01/07 10:01:24;;;;;;;4.30;2.17;;;;;;;0.32;85.73;101534.94;5189342;28;21944;-75
2024/01/07 10:03:54;;;;;;;6.07;2.05;;;;;;;0.30;86.32;101540.88;5191200;28;20045;-76
2024/01/07 10:06:25;;;;;;;7.07;2.20;;;;;;;0.50;87.79;101548.19;5188866;28;20045;-76
2024/01/07 10:08:55;;;;;;;4.07;1.95;;;;;;;0.54;87.92;101542.25;5192668;28;20327;-76
2024/01/07 10:11:25;;;;;;;4.20;2.10;;;;;;;0.55;87.62;101538.00;5193879;28;20038;-76
2024/01/07 10:13:56;;;;;;;5.25;2.50;;;;;;;0.34;85.98;101553.84;5194639;28;20082;-76
2024/01/07 10:16:26;;;;;;;6.10;2.13;;;;;;;0.42;86.85;101552.28;5193054;28;20033;-76
2024/01/07 10:18:57;;;;;;;4.50;2.10;;;;;;;0.66;86.66;101545.06;5196631;28;20045;-76
2024/01/07 10:21:27;;;;;;;6.07;2.40;;;;;;;0.62;85.96;101543.28;5195354;28;20065;-76
2024/01/07 10:24:11;;;;;;;4.57;1.80;;;;;;;0.47;85.78;101549.81;5194911;28;20080;-76
2024/01/07 10:26:42;;;;;;;3.72;1.67;;;;;;;0.27;86.16;101558.81;5194081;28;20546;-76
2024/01/07 10:29:12;;;;;;;4.65;1.92;;;;;;;0.43;86.95;101548.91;5195234;28;20038;-76
2024/01/07 10:31:43;;;;;;;4.32;1.45;;;;;;;0.41;86.25;101547.97;5193956;28;20163;-76
2024/01/07 10:34:13;;;;;;;1.98;1.20;;;;;;;0.44;87.17;101553.19;5195831;28;20446;-76
2024/01/07 10:36:45;;;;;;;7.57;1.70;;;;;;;0.38;87.60;101550.50;5199523;28;20560;-76
2024/01/07 10:39:16;;;;;;;4.30;1.80;;;;;;;0.54;86.65;101547.41;5200610;28;20036;-76
2024/01/07 10:41:47;;;;;;;5.22;1.85;;;;;;;0.17;87.39;101546.59;5193237;28;20045;-76
2024/01/07 10:44:18;;;;;;;4.65;1.83;;;;;;;-0.12;88.59;101559.63;5185150;28;20029;-76
2024/01/07 10:46:49;;;;;;;4.07;1.98;;;;;;;-0.01;88.50;101556.47;5196058;28;20406;-76
2024/01/07 10:49:22;;;;;;;3.03;1.50;;;;;;;0.17;88.20;101550.03;5195710;28;20036;-76
2024/01/07 10:52:08;;;;;;;4.47;1.63;;;;;;;0.34;86.95;101548.69;5200570;28;20528;-76
2024/01/07 10:54:41;;;;;;;2.97;1.70;;;;;;;0.39;86.82;101557.34;5197319;28;20234;-76
2024/01/07 10:57:33;;;;;;;3.25;1.58;;;;;;;0.39;86.62;101556.50;5192756;28;20124;-77
2024/01/07 11:00:07;;;;;;;3.67;1.63;;;;;;;0.38;87.91;101552.22;5196277;28;20052;-77
2024/01/07 11:02:50;;;;;;;6.20;1.60;;;;;;;0.37;88.49;101546.19;5189266;28;20103;-77
2024/01/07 11:05:30;;;;;;;3.10;1.67;;;;;;;0.65;87.87;101542.47;5196817;28;20493;-75
2024/01/07 11:08:11;;;;;;;4.00;1.70;;;;;;;0.87;87.03;101542.91;5200423;28;20112;-76
2024/01/07 11:10:49;;;;;;;4.03;1.70;;;;;;;0.90;86.66;101539.53;5190172;28;20054;-76
2024/01/07 11:13:38;;;;;;;4.63;1.70;;;;;;;0.82;85.02;101536.81;5190563;28;20044;-76
2024/01/07 11:16:09;;;;;;;3.13;1.70;;;;;;;0.90;85.92;101542.09;5195363;28;20029;-76
2024/01/07 11:18:50;;;;;;;5.22;1.65;;;;;;;1.05;85.64;101537.25;5197596;28;20422;-76
2024/01/07 11:21:22;;;;;;;5.28;2.42;;;;;;;0.75;86.17;101542.66;5200347;28;20461;-76
2024/01/07 11:23:53;;;;;;;4.03;1.83;;;;;;;0.76;85.89;101544.38;5198680;28;20052;-76
2024/01/07 11:26:23;;;;;;;3.92;1.73;;;;;;;0.83;85.28;101541.13;5195288;28;20025;-75
2024/01/07 11:28:58;;;;;;;4.50;1.77;;;;;;;0.94;86.04;101543.88;5195844;28;20048;-76
2024/01/07 11:31:40;;;;;;;5.97;1.92;;;;;;;0.40;86.17;101543.66;5196069;28;20041;-76
2024/01/07 11:34:10;;;;;;;5.13;1.85;;;;;;;0.41;86.70;101540.25;5201422;28;20311;-76
2024/01/07 11:36:41;;;;;;;4.93;1.67;;;;;;;0.46;87.18;101548.97;5200452;28;20036;-76
2024/01/07 11:39:11;;;;;;;4.65;1.75;;;;;;;0.84;86.15;101544.53;5196208;28;20564;-76
2024/01/07 11:41:42;;;;;;;6.20;1.80;;;;;;;0.72;85.35;101540.03;5192768;28;20041;-76